createdAt,value
2023-01-06T00:01:11.885Z,57.93
2023-01-06T00:03:39.402Z,58.69
2023-01-06T00:06:08.293Z,59.00
2023-01-06T00:08:35.836Z,58.56
2023-01-06T00:11:11.415Z,59.18
2023-01-06T00:13:39.142Z,58.71
2023-01-06T00:16:09.889Z,57.71
2023-01-06T00:18:36.994Z,57.93
2023-01-06T00:21:05.008Z,58.37
2023-01-06T00:23:32.895Z,57.76
2023-01-06T00:26:00.276Z,58.36
2023-01-06T00:28:27.297Z,57.91
2023-01-06T00:30:54.564Z,58.61
2023-01-06T00:33:21.741Z,57.57
2023-01-06T00:35:48.703Z,57.82
2023-01-06T00:38:15.706Z,58.02
2023-01-06T00:40:42.724Z,58.29
2023-01-06T00:43:09.729Z,57.78
2023-01-06T00:45:36.714Z,57.83
2023-01-06T00:48:03.899Z,57.94
2023-01-06T00:50:31.146Z,58.65
2023-01-06T00:52:58.126Z,58.36
2023-01-06T00:55:25.127Z,58.34
2023-01-06T00:57:53.130Z,58.24
2023-01-06T01:00:20.312Z,57.48
2023-01-06T01:02:47.360Z,58.15
2023-01-06T01:05:14.742Z,58.31
2023-01-06T01:07:42.764Z,58.09
2023-01-06T01:10:10.267Z,58.23
2023-01-06T01:12:37.303Z,58.10
2023-01-06T01:15:05.392Z,57.76
2023-01-06T01:17:32.894Z,57.46
2023-01-06T01:20:01.156Z,57.40
2023-01-06T01:22:32.094Z,57.86
2023-01-06T01:25:01.104Z,58.48
2023-01-06T01:27:32.164Z,57.24
2023-01-06T01:29:59.101Z,57.62
2023-01-06T01:32:26.273Z,58.01
2023-01-06T01:34:53.221Z,58.06
2023-01-06T01:37:20.191Z,57.34
2023-01-06T01:39:49.225Z,57.69
2023-01-06T01:42:18.651Z,57.68
2023-01-06T01:45:02.723Z,57.81
2023-01-06T01:47:45.702Z,57.83
2023-01-06T01:50:12.668Z,57.29
2023-01-06T01:52:43.048Z,58.06
2023-01-06T01:55:12.358Z,57.93
2023-01-06T01:57:55.094Z,57.83
2023-01-06T02:00:22.157Z,57.92
2023-01-06T02:02:49.699Z,57.21
2023-01-06T02:05:20.506Z,57.42
2023-01-06T02:07:48.172Z,57.21
2023-01-06T02:10:18.350Z,57.44
2023-01-06T02:12:49.301Z,57.00
2023-01-06T02:15:36.462Z,57.93
2023-01-06T02:18:21.784Z,57.76
2023-01-06T02:21:09.828Z,56.78
2023-01-06T02:23:58.743Z,57.05
2023-01-06T02:26:55.938Z,57.45
2023-01-06T02:29:31.959Z,57.53
2023-01-06T02:32:24.838Z,57.41
2023-01-06T02:35:07.882Z,56.58
2023-01-06T02:37:50.238Z,57.21
2023-01-06T02:40:40.989Z,56.86
2023-01-06T02:43:37.106Z,57.39
2023-01-06T02:46:10.293Z,57.42
2023-01-06T02:48:45.028Z,57.01
2023-01-06T02:51:30.350Z,56.81
2023-01-06T02:54:18.051Z,57.41
2023-01-06T02:56:55.114Z,57.02
2023-01-06T02:59:29.956Z,57.83
2023-01-06T03:01:59.811Z,56.41
2023-01-06T03:04:33.342Z,56.88
2023-01-06T03:07:03.570Z,56.77
2023-01-06T03:09:35.175Z,57.66
2023-01-06T03:12:32.376Z,56.80
2023-01-06T03:15:00.051Z,57.59
2023-01-06T03:17:29.810Z,57.33
2023-01-06T03:19:57.322Z,57.21
2023-01-06T03:22:25.498Z,57.01
2023-01-06T03:24:53.022Z,57.23
2023-01-06T03:27:26.127Z,56.85
2023-01-06T03:29:54.435Z,56.96
2023-01-06T03:32:28.797Z,57.43
2023-01-06T03:35:28.330Z,56.86
2023-01-06T03:38:01.724Z,57.35
2023-01-06T03:40:44.033Z,56.61
2023-01-06T03:43:25.096Z,56.73
2023-01-06T03:46:12.450Z,56.77
2023-01-06T03:48:57.235Z,56.65
2023-01-06T03:51:48.774Z,56.76
2023-01-06T03:54:20.283Z,57.11
2023-01-06T03:56:51.176Z,56.64
2023-01-06T03:59:24.914Z,57.12
2023-01-06T04:01:53.277Z,57.46
2023-01-06T04:04:21.743Z,57.08
2023-01-06T04:06:48.991Z,57.04
2023-01-06T04:09:16.812Z,57.03
2023-01-06T04:12:04.084Z,57.36
2023-01-06T04:14:34.140Z,57.41
2023-01-06T04:17:02.476Z,57.77
2023-01-06T04:19:29.679Z,57.63
2023-01-06T04:21:57.549Z,57.50
2023-01-06T04:24:28.596Z,57.53
2023-01-06T04:26:56.313Z,57.19
2023-01-06T04:29:23.341Z,57.26
2023-01-06T04:31:53.105Z,56.92
2023-01-06T04:34:20.656Z,57.11
2023-01-06T04:36:48.319Z,57.71
2023-01-06T04:39:15.273Z,57.76
2023-01-06T04:41:42.218Z,57.71
2023-01-06T04:44:09.186Z,57.39
2023-01-06T04:46:36.192Z,57.34
2023-01-06T04:49:03.543Z,57.23
2023-01-06T04:51:30.551Z,57.69
2023-01-06T04:53:57.584Z,56.86
2023-01-06T04:56:26.723Z,57.53
2023-01-06T04:58:55.768Z,58.26
2023-01-06T05:01:23.882Z,58.09
2023-01-06T05:03:51.356Z,57.51
2023-01-06T05:06:19.465Z,57.34
2023-01-06T05:08:47.148Z,57.56
2023-01-06T05:11:18.229Z,57.79
2023-01-06T05:13:45.650Z,57.11
2023-01-06T05:16:24.589Z,57.09
2023-01-06T05:18:52.032Z,56.92
2023-01-06T05:21:19.091Z,57.18
2023-01-06T05:23:46.092Z,57.19
2023-01-06T05:26:22.279Z,56.79
2023-01-06T05:28:49.562Z,56.92
2023-01-06T05:31:16.715Z,56.73
2023-01-06T05:33:43.933Z,57.05
2023-01-06T05:36:13.510Z,57.34
2023-01-06T05:38:40.870Z,56.91
2023-01-06T05:41:08.255Z,57.16
2023-01-06T05:43:36.691Z,56.89
2023-01-06T05:46:08.758Z,57.66
2023-01-06T05:48:36.504Z,57.29
2023-01-06T05:51:05.767Z,57.03
2023-01-06T05:53:38.025Z,56.67
2023-01-06T05:56:06.373Z,57.19
2023-01-06T05:58:34.257Z,57.45
2023-01-06T06:01:02.469Z,56.95
2023-01-06T06:03:29.779Z,56.97
2023-01-06T06:06:03.356Z,57.22
2023-01-06T06:08:30.415Z,57.88
2023-01-06T06:11:05.851Z,57.17
2023-01-06T06:13:33.323Z,57.30
2023-01-06T06:16:11.534Z,57.46
2023-01-06T06:18:44.612Z,57.15
2023-01-06T06:21:17.031Z,57.16
2023-01-06T06:23:44.444Z,57.20
2023-01-06T06:26:12.002Z,57.49
2023-01-06T06:28:40.340Z,57.86
2023-01-06T06:31:09.936Z,57.31
2023-01-06T06:33:37.496Z,57.45
2023-01-06T06:36:05.926Z,57.38
2023-01-06T06:38:32.895Z,57.93
2023-01-06T06:40:59.874Z,57.48
2023-01-06T06:43:26.963Z,57.27
2023-01-06T06:45:54.041Z,56.97
2023-01-06T06:48:21.089Z,56.71
2023-01-06T06:50:56.679Z,57.13
2023-01-06T06:53:23.739Z,56.88
2023-01-06T06:55:50.753Z,57.18
2023-01-06T06:58:17.923Z,57.11
2023-01-06T07:00:44.980Z,56.67
2023-01-06T07:03:11.960Z,57.27
2023-01-06T07:05:39.333Z,56.67
2023-01-06T07:08:06.304Z,56.55
2023-01-06T07:10:33.965Z,56.38
2023-01-06T07:13:01.029Z,56.83
2023-01-06T07:15:29.345Z,56.58
2023-01-06T07:18:01.261Z,57.37
2023-01-06T07:20:29.873Z,57.44
2023-01-06T07:22:56.882Z,56.98
2023-01-06T07:25:24.360Z,57.28
2023-01-06T07:27:55.594Z,56.97
2023-01-06T07:30:24.462Z,56.68
2023-01-06T07:32:51.592Z,56.79
2023-01-06T07:35:19.010Z,56.71
2023-01-06T07:37:46.079Z,56.40
2023-01-06T07:40:14.058Z,56.85
2023-01-06T07:42:41.205Z,56.27
2023-01-06T07:45:08.851Z,56.47
2023-01-06T07:47:36.281Z,56.72
2023-01-06T07:50:04.848Z,56.90
2023-01-06T07:52:32.221Z,56.58
2023-01-06T07:55:00.265Z,56.64
2023-01-06T07:57:28.092Z,56.49
2023-01-06T07:59:55.261Z,56.73
2023-01-06T08:02:23.229Z,56.22
2023-01-06T08:04:50.444Z,56.86
2023-01-06T08:07:17.601Z,56.07
2023-01-06T08:09:45.031Z,56.92
2023-01-06T08:12:12.412Z,56.45
2023-01-06T08:14:39.597Z,56.87
2023-01-06T08:17:07.567Z,56.69
2023-01-06T08:19:34.724Z,56.46
2023-01-06T08:22:02.174Z,56.73
2023-01-06T08:24:31.953Z,56.47
2023-01-06T08:26:59.684Z,55.92
2023-01-06T08:29:26.744Z,56.63
2023-01-06T08:32:02.236Z,56.59
2023-01-06T08:34:36.448Z,56.19
2023-01-06T08:37:03.872Z,56.21
2023-01-06T08:39:31.111Z,56.49
2023-01-06T08:41:58.483Z,56.85
2023-01-06T08:44:25.583Z,56.00
2023-01-06T08:46:52.674Z,55.95
2023-01-06T08:49:19.721Z,55.75
2023-01-06T08:51:46.850Z,56.39
2023-01-06T08:54:14.865Z,56.57
2023-01-06T08:56:43.682Z,56.17
2023-01-06T08:59:14.746Z,55.95
2023-01-06T09:01:43.154Z,56.16
2023-01-06T09:04:11.659Z,55.87
2023-01-06T09:06:39.841Z,55.67
2023-01-06T09:09:07.906Z,56.35
2023-01-06T09:11:35.577Z,56.16
2023-01-06T09:14:02.695Z,56.21
2023-01-06T09:16:29.835Z,56.29
2023-01-06T09:18:56.929Z,56.68
2023-01-06T09:21:24.387Z,55.63
2023-01-06T09:23:51.832Z,55.90
2023-01-06T09:26:20.238Z,55.39
2023-01-06T09:28:47.684Z,55.74
2023-01-06T09:31:14.787Z,56.09
2023-01-06T09:33:41.865Z,56.04
2023-01-06T09:36:09.040Z,55.61
2023-01-06T09:38:36.172Z,55.34
2023-01-06T09:41:24.216Z,55.06
2023-01-06T09:44:15.963Z,55.10
2023-01-06T09:46:47.073Z,54.59
2023-01-06T09:49:25.945Z,54.74
2023-01-06T09:52:07.592Z,55.44
2023-01-06T09:54:41.313Z,55.36
2023-01-06T09:57:22.150Z,55.36
2023-01-06T09:59:56.105Z,54.67
2023-01-06T10:02:29.748Z,55.30
2023-01-06T10:04:56.774Z,55.12
2023-01-06T10:07:51.949Z,54.27
2023-01-06T10:10:49.332Z,54.38
2023-01-06T10:13:25.407Z,53.14
2023-01-06T10:16:10.145Z,52.95
2023-01-06T10:18:37.098Z,52.54
2023-01-06T10:21:15.059Z,53.62
2023-01-06T10:23:51.002Z,53.24
2023-01-06T10:26:31.425Z,53.03
2023-01-06T10:29:35.802Z,53.48
2023-01-06T10:32:05.137Z,53.70
2023-01-06T10:34:34.423Z,52.55
2023-01-06T10:37:10.373Z,54.02
2023-01-06T10:39:39.853Z,54.47
2023-01-06T10:42:46.778Z,54.67
2023-01-06T10:45:14.678Z,53.16
2023-01-06T10:47:43.865Z,52.91
2023-01-06T10:50:15.981Z,53.08
2023-01-06T10:52:44.390Z,53.43
2023-01-06T10:55:26.404Z,53.67
2023-01-06T10:57:57.763Z,53.61
2023-01-06T11:00:25.245Z,53.77
2023-01-06T11:02:57.727Z,53.15
2023-01-06T11:05:34.853Z,52.88
2023-01-06T11:08:01.844Z,52.35
2023-01-06T11:10:28.827Z,52.06
2023-01-06T11:12:58.547Z,52.07
2023-01-06T11:15:35.620Z,52.19
2023-01-06T11:18:04.846Z,51.57
2023-01-06T11:20:34.743Z,51.92
2023-01-06T11:23:21.660Z,51.72
2023-01-06T11:26:20.824Z,51.95
2023-01-06T11:28:49.571Z,52.31
2023-01-06T11:31:28.488Z,51.54
2023-01-06T11:33:58.286Z,52.19
2023-01-06T11:36:29.232Z,52.82
2023-01-06T11:38:59.432Z,52.50
2023-01-06T11:41:41.433Z,51.45
2023-01-06T11:44:44.232Z,51.70
2023-01-06T11:47:21.685Z,52.72
2023-01-06T11:49:54.696Z,52.26
2023-01-06T11:52:24.787Z,52.15
2023-01-06T11:55:02.351Z,51.97
2023-01-06T11:57:37.236Z,52.38
2023-01-06T12:00:43.746Z,52.75
2023-01-06T12:03:10.856Z,52.91
2023-01-06T12:05:39.190Z,52.79
2023-01-06T12:08:19.017Z,53.57
2023-01-06T12:10:51.683Z,53.63
2023-01-06T12:13:18.999Z,54.10
2023-01-06T12:15:52.924Z,53.84
2023-01-06T12:18:28.346Z,54.24
2023-01-06T12:20:56.982Z,54.42
2023-01-06T12:23:32.018Z,54.06
2023-01-06T12:26:02.712Z,54.43
2023-01-06T12:28:33.164Z,54.77
2023-01-06T12:31:25.005Z,55.50
2023-01-06T12:34:11.716Z,55.06
2023-01-06T12:36:54.060Z,55.39
2023-01-06T12:39:36.161Z,54.77
2023-01-06T12:42:34.895Z,54.28
2023-01-06T12:45:16.404Z,55.45
2023-01-06T12:47:46.353Z,54.78
2023-01-06T12:50:35.183Z,55.98
2023-01-06T12:53:20.809Z,55.02
2023-01-06T12:56:17.675Z,55.14
2023-01-06T12:59:16.767Z,55.78
2023-01-06T13:01:56.469Z,54.67
2023-01-06T13:04:39.828Z,55.28
2023-01-06T13:07:06.902Z,56.02
2023-01-06T13:10:22.147Z,55.20
2023-01-06T13:13:30.756Z,55.46
2023-01-06T13:16:05.580Z,55.91
2023-01-06T13:18:38.473Z,55.46
2023-01-06T13:21:11.366Z,56.59
2023-01-06T13:24:03.107Z,56.31
2023-01-06T13:26:36.139Z,56.22
2023-01-06T13:29:40.668Z,56.83
2023-01-06T13:32:19.761Z,56.45
2023-01-06T13:35:20.936Z,56.79
2023-01-06T13:38:10.631Z,56.05
2023-01-06T13:40:40.507Z,56.22
2023-01-06T13:43:26.484Z,56.79
2023-01-06T13:45:59.099Z,56.78
2023-01-06T13:48:33.673Z,56.47
2023-01-06T13:51:04.945Z,56.51
2023-01-06T13:53:40.600Z,56.87
2023-01-06T13:56:13.699Z,56.63
2023-01-06T13:58:41.677Z,56.87
2023-01-06T14:01:11.368Z,57.07
2023-01-06T14:03:43.260Z,57.29
2023-01-06T14:06:40.065Z,56.85
2023-01-06T14:09:18.267Z,56.16
2023-01-06T14:11:45.938Z,57.40
2023-01-06T14:14:30.251Z,56.85
2023-01-06T14:16:58.120Z,57.89
2023-01-06T14:19:31.526Z,57.13
2023-01-06T14:22:20.412Z,57.57
2023-01-06T14:24:53.964Z,56.76
2023-01-06T14:27:45.608Z,56.26
2023-01-06T14:30:40.734Z,56.64
2023-01-06T14:33:07.662Z,56.63
2023-01-06T14:35:44.148Z,56.87
2023-01-06T14:38:20.543Z,56.32
2023-01-06T14:40:50.120Z,56.63
2023-01-06T14:43:44.661Z,57.46
2023-01-06T14:46:22.296Z,57.55
2023-01-06T14:48:59.262Z,57.24
2023-01-06T14:51:27.060Z,57.06
2023-01-06T14:54:04.187Z,57.99
2023-01-06T14:56:33.308Z,57.23
2023-01-06T14:59:12.348Z,57.30
2023-01-06T15:01:42.798Z,57.83
2023-01-06T15:04:27.510Z,57.13
2023-01-06T15:07:03.701Z,58.25
2023-01-06T15:09:30.668Z,58.39
2023-01-06T15:11:57.755Z,57.34
2023-01-06T15:14:33.149Z,57.28
2023-01-06T15:17:06.805Z,56.69
2023-01-06T15:19:35.369Z,56.93
2023-01-06T15:22:07.938Z,57.33
2023-01-06T15:24:38.491Z,57.37
2023-01-06T15:27:08.522Z,57.44
2023-01-06T15:29:36.025Z,57.11
2023-01-06T15:32:04.600Z,58.16
2023-01-06T15:34:34.584Z,57.77
2023-01-06T15:37:04.593Z,58.95
2023-01-06T15:39:33.523Z,57.83
2023-01-06T15:42:02.493Z,57.84
2023-01-06T15:44:32.443Z,58.02
2023-01-06T15:47:16.271Z,57.59
2023-01-06T15:49:56.740Z,58.34
2023-01-06T15:52:37.009Z,58.23
2023-01-06T15:55:07.388Z,57.72
2023-01-06T15:57:40.092Z,58.01
2023-01-06T16:00:19.344Z,58.08
2023-01-06T16:02:49.259Z,58.25
2023-01-06T16:05:35.747Z,57.81
2023-01-06T16:08:05.182Z,58.36
2023-01-06T16:10:37.842Z,58.64
2023-01-06T16:13:15.876Z,58.42
2023-01-06T16:15:58.804Z,58.57
2023-01-06T16:18:34.633Z,58.36
2023-01-06T16:21:22.328Z,58.29
2023-01-06T16:23:53.406Z,58.56
2023-01-06T16:26:23.480Z,58.01
2023-01-06T16:28:59.806Z,58.44
2023-01-06T16:31:37.420Z,58.45
2023-01-06T16:34:22.564Z,58.67
2023-01-06T16:36:50.534Z,58.41
2023-01-06T16:39:17.666Z,58.44
2023-01-06T16:42:38.664Z,57.85
2023-01-06T16:45:35.427Z,58.10
2023-01-06T16:48:02.497Z,57.82
2023-01-06T16:50:55.077Z,58.55
2023-01-06T16:53:23.350Z,58.49
2023-01-06T16:55:55.738Z,57.79
2023-01-06T16:58:26.563Z,58.18
2023-01-06T17:00:56.577Z,58.76
2023-01-06T17:03:25.985Z,58.51
2023-01-06T17:05:53.631Z,58.10
2023-01-06T17:08:30.956Z,58.19
2023-01-06T17:11:01.654Z,58.21
2023-01-06T17:13:35.655Z,58.00
2023-01-06T17:16:16.736Z,58.57
2023-01-06T17:19:07.001Z,58.14
2023-01-06T17:21:39.612Z,57.71
2023-01-06T17:24:09.368Z,57.53
2023-01-06T17:26:36.908Z,58.33
2023-01-06T17:29:20.213Z,58.55
2023-01-06T17:31:57.175Z,58.44
2023-01-06T17:34:31.915Z,58.15
2023-01-06T17:37:10.911Z,58.22
2023-01-06T17:39:40.716Z,58.65
2023-01-06T17:42:07.646Z,58.61
2023-01-06T17:44:37.821Z,58.67
2023-01-06T17:47:16.842Z,58.36
2023-01-06T17:49:54.939Z,58.68
2023-01-06T17:52:24.161Z,59.13
2023-01-06T17:55:15.897Z,59.15
2023-01-06T17:57:46.179Z,58.85
2023-01-06T18:00:27.830Z,58.52
2023-01-06T18:03:19.515Z,58.52
2023-01-06T18:05:49.679Z,59.31
2023-01-06T18:08:17.549Z,58.87
2023-01-06T18:11:10.451Z,59.14
2023-01-06T18:13:41.956Z,58.73
2023-01-06T18:16:27.380Z,59.42
2023-01-06T18:19:04.739Z,58.71
2023-01-06T18:21:36.916Z,58.70
2023-01-06T18:24:32.027Z,59.20
2023-01-06T18:27:01.404Z,59.19
2023-01-06T18:29:36.887Z,59.32
2023-01-06T18:32:31.349Z,58.82
2023-01-06T18:35:04.310Z,58.94
2023-01-06T18:37:34.595Z,59.00
2023-01-06T18:40:08.161Z,59.02
2023-01-06T18:42:37.672Z,58.66
2023-01-06T18:45:17.005Z,58.56
2023-01-06T18:47:46.245Z,58.63
2023-01-06T18:50:41.736Z,59.01
2023-01-06T18:53:15.078Z,59.05
2023-01-06T18:55:43.197Z,59.40
2023-01-06T18:58:39.058Z,58.91
2023-01-06T19:01:17.985Z,59.21
2023-01-06T19:04:04.149Z,58.81
2023-01-06T19:06:38.501Z,58.92
2023-01-06T19:09:27.398Z,58.56
2023-01-06T19:12:00.322Z,58.80
2023-01-06T19:14:30.280Z,59.01
2023-01-06T19:16:58.855Z,58.61
2023-01-06T19:19:25.820Z,58.86
2023-01-06T19:21:57.260Z,59.24
2023-01-06T19:24:27.325Z,59.17
2023-01-06T19:26:56.568Z,59.09
2023-01-06T19:29:28.680Z,59.31
2023-01-06T19:31:59.074Z,59.52
2023-01-06T19:34:26.563Z,58.77
2023-01-06T19:36:57.055Z,59.20
2023-01-06T19:39:40.572Z,58.97
2023-01-06T19:42:16.488Z,59.11
2023-01-06T19:44:43.764Z,58.80
2023-01-06T19:47:21.616Z,58.94
2023-01-06T19:49:56.096Z,59.25
2023-01-06T19:52:41.334Z,58.76
2023-01-06T19:55:15.298Z,59.59
2023-01-06T19:57:47.750Z,58.96
2023-01-06T20:00:21.093Z,59.47
2023-01-06T20:02:51.066Z,59.20
2023-01-06T20:05:19.083Z,59.15
2023-01-06T20:07:46.130Z,59.03
2023-01-06T20:10:13.157Z,59.12
2023-01-06T20:12:40.180Z,59.60
2023-01-06T20:15:07.772Z,59.21
2023-01-06T20:17:35.092Z,59.49
2023-01-06T20:20:02.074Z,59.07
2023-01-06T20:22:30.351Z,58.82
2023-01-06T20:24:57.424Z,58.96
2023-01-06T20:27:24.389Z,58.54
2023-01-06T20:29:52.889Z,59.56
2023-01-06T20:32:19.945Z,59.25
2023-01-06T20:34:47.027Z,59.31
2023-01-06T20:37:13.972Z,59.96
2023-01-06T20:39:40.962Z,59.81
2023-01-06T20:42:08.829Z,59.14
2023-01-06T20:44:35.903Z,59.51
2023-01-06T20:47:02.895Z,59.06
2023-01-06T20:49:29.947Z,59.34
2023-01-06T20:51:56.948Z,59.77
2023-01-06T20:54:23.996Z,59.35
2023-01-06T20:56:51.021Z,59.68
2023-01-06T20:59:17.992Z,59.54
2023-01-06T21:01:45.039Z,59.31
2023-01-06T21:04:12.133Z,59.44
2023-01-06T21:06:39.091Z,59.42
2023-01-06T21:09:06.126Z,60.12
2023-01-06T21:11:33.309Z,59.65
2023-01-06T21:14:00.337Z,59.25
2023-01-06T21:16:27.338Z,60.00
2023-01-06T21:18:54.350Z,59.99
2023-01-06T21:21:21.335Z,59.45
2023-01-06T21:23:48.299Z,59.74
2023-01-06T21:26:15.234Z,59.58
2023-01-06T21:28:42.219Z,60.12
2023-01-06T21:31:09.292Z,60.13
2023-01-06T21:33:36.283Z,59.60
2023-01-06T21:36:03.946Z,60.25
2023-01-06T21:38:33.058Z,60.46
2023-01-06T21:41:22.669Z,59.99
2023-01-06T21:43:49.843Z,59.92
2023-01-06T21:46:17.050Z,60.05
2023-01-06T21:48:44.218Z,59.75
2023-01-06T21:51:11.415Z,60.14
2023-01-06T21:53:39.095Z,60.29
2023-01-06T21:56:08.229Z,59.79
2023-01-06T21:58:35.667Z,59.29
2023-01-06T22:01:02.784Z,59.33
2023-01-06T22:03:29.873Z,59.77
2023-01-06T22:05:57.844Z,60.17
2023-01-06T22:08:24.948Z,60.10
2023-01-06T22:10:52.007Z,59.73
2023-01-06T22:13:21.925Z,59.29
2023-01-06T22:15:50.333Z,59.57
2023-01-06T22:18:18.207Z,59.79
2023-01-06T22:20:45.827Z,59.97
2023-01-06T22:23:18.341Z,60.12
2023-01-06T22:25:45.436Z,59.82
2023-01-06T22:28:12.511Z,59.96
2023-01-06T22:30:39.679Z,59.72
2023-01-06T22:33:06.712Z,59.83
2023-01-06T22:35:33.678Z,60.01
2023-01-06T22:38:00.869Z,60.04
2023-01-06T22:40:28.234Z,60.14
2023-01-06T22:42:55.351Z,59.57
2023-01-06T22:45:22.414Z,60.00
2023-01-06T22:47:49.426Z,60.04
2023-01-06T22:50:16.518Z,60.10
2023-01-06T22:52:43.474Z,60.52
2023-01-06T22:55:10.495Z,60.17
2023-01-06T22:57:37.560Z,60.02
2023-01-06T23:00:11.621Z,60.01
2023-01-06T23:02:38.925Z,60.07
2023-01-06T23:05:06.308Z,60.10
2023-01-06T23:07:40.695Z,60.31
2023-01-06T23:10:09.868Z,60.29
2023-01-06T23:12:38.763Z,59.73
2023-01-06T23:15:07.138Z,60.47
2023-01-06T23:17:36.614Z,60.17
2023-01-06T23:20:04.650Z,59.74
2023-01-06T23:22:31.715Z,59.65
2023-01-06T23:24:58.767Z,60.20
2023-01-06T23:27:25.758Z,59.86
2023-01-06T23:29:52.682Z,59.90
2023-01-06T23:32:20.376Z,60.06
2023-01-06T23:34:47.830Z,60.28
2023-01-06T23:37:14.817Z,59.86
2023-01-06T23:39:41.752Z,59.66
2023-01-06T23:42:08.723Z,59.87
2023-01-06T23:44:35.656Z,60.17
2023-01-06T23:47:02.632Z,59.93
2023-01-06T23:49:29.668Z,60.01
2023-01-06T23:51:56.787Z,59.63
2023-01-06T23:54:23.869Z,59.70
2023-01-06T23:56:50.806Z,60.23
2023-01-06T23:59:17.766Z,60.00
